sensor_id;sensor_type;location;lat;lon;timestamp;temperature;humidity
13433;DHT22;6789;47.678;9.158;2023-07-16T00:02:19;22.40;99.90
13433;DHT22;6789;47.678;9.158;2023-07-16T00:07:11;22.10;99.90
13433;DHT22;6789;47.678;9.158;2023-07-16T00:12:03;21.90;99.90
13433;DHT22;6789;47.678;9.158;2023-07-16T00:16:55;21.90;99.90
13433;DHT22;6789;47.678;9.158;2023-07-16T00:21:47;21.90;99.90
13433;DHT22;6789;47.678;9.158;2023-07-16T00:26:39;21.90;99.90
13433;DHT22;6789;47.678;9.158;2023-07-16T00:31:31;22.00;99.90
13433;DHT22;6789;47.678;9.158;2023-07-16T00:36:24;22.00;99.90
13433;DHT22;6789;47.678;9.158;2023-07-16T00:41:16;21.70;99.90
13433;DHT22;6789;47.678;9.158;2023-07-16T00:46:09;21.60;99.90
13433;DHT22;6789;47.678;9.158;2023-07-16T00:51:02;21.60;99.90
13433;DHT22;6789;47.678;9.158;2023-07-16T00:55:55;21.50;99.90
13433;DHT22;6789;47.678;9.158;2023-07-16T01:00:47;21.20;99.90
13433;DHT22;6789;47.678;9.158;2023-07-16T01:11:03;21.00;99.90
13433;DHT22;6789;47.678;9.158;2023-07-16T01:15:57;21.00;99.90
13433;DHT22;6789;47.678;9.158;2023-07-16T01:20:49;21.10;99.90
13433;DHT22;6789;47.678;9.158;2023-07-16T01:26:01;21.10;99.90
13433;DHT22;6789;47.678;9.158;2023-07-16T01:31:00;21.30;99.90
13433;DHT22;6789;47.678;9.158;2023-07-16T01:35:53;21.50;99.90
13433;DHT22;6789;47.678;9.158;2023-07-16T01:40:47;21.70;99.90
13433;DHT22;6789;47.678;9.158;2023-07-16T01:45:39;21.80;99.90
13433;DHT22;6789;47.678;9.158;2023-07-16T01:50:31;21.70;99.90
13433;DHT22;6789;47.678;9.158;2023-07-16T01:55:24;21.20;99.90
13433;DHT22;6789;47.678;9.158;2023-07-16T02:00:16;20.90;99.90
13433;DHT22;6789;47.678;9.158;2023-07-16T02:05:08;20.80;99.90
13433;DHT22;6789;47.678;9.158;2023-07-16T02:09:59;20.90;99.90
13433;DHT22;6789;47.678;9.158;2023-07-16T02:14:51;20.80;99.90
13433;DHT22;6789;47.678;9.158;2023-07-16T02:19:43;21.00;99.90
13433;DHT22;6789;47.678;9.158;2023-07-16T02:24:35;21.00;99.90
13433;DHT22;6789;47.678;9.158;2023-07-16T02:29:27;20.80;99.90
13433;DHT22;6789;47.678;9.158;2023-07-16T02:34:18;20.90;99.90
13433;DHT22;6789;47.678;9.158;2023-07-16T02:39:10;20.80;99.90
13433;DHT22;6789;47.678;9.158;2023-07-16T02:44:05;20.20;99.90
13433;DHT22;6789;47.678;9.158;2023-07-16T02:48:57;20.00;99.90
13433;DHT22;6789;47.678;9.158;2023-07-16T02:53:49;19.90;99.90
13433;DHT22;6789;47.678;9.158;2023-07-16T02:58:41;19.60;99.90
13433;DHT22;6789;47.678;9.158;2023-07-16T03:03:33;19.30;99.90
13433;DHT22;6789;47.678;9.158;2023-07-16T03:08:26;19.40;99.90
13433;DHT22;6789;47.678;9.158;2023-07-16T03:13:21;19.00;99.90
13433;DHT22;6789;47.678;9.158;2023-07-16T03:18:13;19.20;99.90
13433;DHT22;6789;47.678;9.158;2023-07-16T03:23:05;18.90;99.90
13433;DHT22;6789;47.678;9.158;2023-07-16T03:27:57;19.00;99.90
13433;DHT22;6789;47.678;9.158;2023-07-16T03:32:49;19.10;99.90
13433;DHT22;6789;47.678;9.158;2023-07-16T03:37:44;19.30;99.90
13433;DHT22;6789;47.678;9.158;2023-07-16T03:42:36;19.50;99.90
13433;DHT22;6789;47.678;9.158;2023-07-16T03:47:27;20.00;99.90
13433;DHT22;6789;47.678;9.158;2023-07-16T03:52:19;19.70;99.90
13433;DHT22;6789;47.678;9.158;2023-07-16T03:57:11;19.40;99.90
13433;DHT22;6789;47.678;9.158;2023-07-16T04:02:03;19.50;99.90
13433;DHT22;6789;47.678;9.158;2023-07-16T04:06:55;19.20;99.90
13433;DHT22;6789;47.678;9.158;2023-07-16T04:11:47;19.20;99.90
13433;DHT22;6789;47.678;9.158;2023-07-16T04:16:39;19.20;99.90
13433;DHT22;6789;47.678;9.158;2023-07-16T04:21:31;19.30;99.90
13433;DHT22;6789;47.678;9.158;2023-07-16T04:26:23;19.40;99.90
13433;DHT22;6789;47.678;9.158;2023-07-16T04:31:14;19.50;99.90
13433;DHT22;6789;47.678;9.158;2023-07-16T04:36:06;19.30;99.90
13433;DHT22;6789;47.678;9.158;2023-07-16T04:40:58;19.00;99.90
13433;DHT22;6789;47.678;9.158;2023-07-16T04:45:50;19.10;99.90
13433;DHT22;6789;47.678;9.158;2023-07-16T04:50:42;19.10;99.90
13433;DHT22;6789;47.678;9.158;2023-07-16T04:55:37;18.80;99.90
13433;DHT22;6789;47.678;9.158;2023-07-16T05:00:33;19.30;99.90
13433;DHT22;6789;47.678;9.158;2023-07-16T05:05:26;19.80;99.90
13433;DHT22;6789;47.678;9.158;2023-07-16T05:10:18;20.20;99.90
13433;DHT22;6789;47.678;9.158;2023-07-16T05:15:10;20.40;99.90
13433;DHT22;6789;47.678;9.158;2023-07-16T05:20:02;20.20;99.90
13433;DHT22;6789;47.678;9.158;2023-07-16T05:24:55;20.10;99.90
13433;DHT22;6789;47.678;9.158;2023-07-16T05:29:47;20.00;99.90
13433;DHT22;6789;47.678;9.158;2023-07-16T05:34:39;20.20;99.90
13433;DHT22;6789;47.678;9.158;2023-07-16T05:39:31;20.20;99.90
13433;DHT22;6789;47.678;9.158;2023-07-16T05:44:23;20.10;99.90
13433;DHT22;6789;47.678;9.158;2023-07-16T05:49:15;20.30;99.90
13433;DHT22;6789;47.678;9.158;2023-07-16T05:54:07;20.20;99.90
13433;DHT22;6789;47.678;9.158;2023-07-16T05:58:59;20.40;99.90
13433;DHT22;6789;47.678;9.158;2023-07-16T06:03:50;20.30;99.90
13433;DHT22;6789;47.678;9.158;2023-07-16T06:08:42;19.90;99.90
13433;DHT22;6789;47.678;9.158;2023-07-16T06:13:35;20.00;99.90
13433;DHT22;6789;47.678;9.158;2023-07-16T06:18:27;19.90;99.90
13433;DHT22;6789;47.678;9.158;2023-07-16T06:23:18;19.90;99.90
13433;DHT22;6789;47.678;9.158;2023-07-16T06:28:10;20.30;99.90
13433;DHT22;6789;47.678;9.158;2023-07-16T06:33:03;20.50;99.90
13433;DHT22;6789;47.678;9.158;2023-07-16T06:37:55;20.70;99.90
13433;DHT22;6789;47.678;9.158;2023-07-16T06:42:47;21.10;99.90
13433;DHT22;6789;47.678;9.158;2023-07-16T06:47:39;21.90;99.90
13433;DHT22;6789;47.678;9.158;2023-07-16T06:52:31;22.60;99.90
13433;DHT22;6789;47.678;9.158;2023-07-16T06:57:23;23.40;99.90
13433;DHT22;6789;47.678;9.158;2023-07-16T07:02:19;24.50;99.90
13433;DHT22;6789;47.678;9.158;2023-07-16T07:07:11;24.90;99.90
13433;DHT22;6789;47.678;9.158;2023-07-16T07:12:03;25.40;99.90
13433;DHT22;6789;47.678;9.158;2023-07-16T07:16:55;25.50;99.90
13433;DHT22;6789;47.678;9.158;2023-07-16T07:21:47;25.10;99.90
13433;DHT22;6789;47.678;9.158;2023-07-16T07:26:41;24.00;99.90
13433;DHT22;6789;47.678;9.158;2023-07-16T07:31:32;24.00;99.90
13433;DHT22;6789;47.678;9.158;2023-07-16T07:36:24;24.10;99.90
13433;DHT22;6789;47.678;9.158;2023-07-16T07:41:16;24.30;99.90
13433;DHT22;6789;47.678;9.158;2023-07-16T07:46:08;24.10;99.90
13433;DHT22;6789;47.678;9.158;2023-07-16T07:51:01;24.20;99.90
13433;DHT22;6789;47.678;9.158;2023-07-16T07:55:57;24.50;99.90
13433;DHT22;6789;47.678;9.158;2023-07-16T08:00:49;24.50;99.90
13433;DHT22;6789;47.678;9.158;2023-07-16T08:05:41;24.70;99.90
13433;DHT22;6789;47.678;9.158;2023-07-16T08:10:33;24.50;99.90
13433;DHT22;6789;47.678;9.158;2023-07-16T08:16:05;24.80;99.90
13433;DHT22;6789;47.678;9.158;2023-07-16T08:21:01;24.80;99.90
13433;DHT22;6789;47.678;9.158;2023-07-16T08:25:53;24.00;99.90
13433;DHT22;6789;47.678;9.158;2023-07-16T08:30:48;24.00;99.90
13433;DHT22;6789;47.678;9.158;2023-07-16T08:35:41;24.00;99.90
13433;DHT22;6789;47.678;9.158;2023-07-16T08:40:34;24.30;99.90
13433;DHT22;6789;47.678;9.158;2023-07-16T08:45:28;24.10;99.90
13433;DHT22;6789;47.678;9.158;2023-07-16T08:50:21;24.10;99.90
13433;DHT22;6789;47.678;9.158;2023-07-16T08:55:16;24.00;99.90
13433;DHT22;6789;47.678;9.158;2023-07-16T09:00:09;24.40;99.90
13433;DHT22;6789;47.678;9.158;2023-07-16T09:05:01;24.40;99.90
13433;DHT22;6789;47.678;9.158;2023-07-16T09:09:59;24.50;99.90
13433;DHT22;6789;47.678;9.158;2023-07-16T09:14:52;24.80;99.90
13433;DHT22;6789;47.678;9.158;2023-07-16T09:19:45;24.80;99.90
13433;DHT22;6789;47.678;9.158;2023-07-16T09:24:37;24.70;99.90
13433;DHT22;6789;47.678;9.158;2023-07-16T09:29:29;24.70;99.90
13433;DHT22;6789;47.678;9.158;2023-07-16T09:34:21;24.30;99.90
13433;DHT22;6789;47.678;9.158;2023-07-16T09:39:14;24.10;99.90
13433;DHT22;6789;47.678;9.158;2023-07-16T09:44:11;24.40;99.90
13433;DHT22;6789;47.678;9.158;2023-07-16T09:49:05;24.50;99.90
13433;DHT22;6789;47.678;9.158;2023-07-16T09:53:57;24.60;99.90
13433;DHT22;6789;47.678;9.158;2023-07-16T09:58:53;25.00;99.90
13433;DHT22;6789;47.678;9.158;2023-07-16T10:03:49;25.20;99.90
13433;DHT22;6789;47.678;9.158;2023-07-16T10:08:49;25.40;99.90
13433;DHT22;6789;47.678;9.158;2023-07-16T10:13:41;25.20;99.90
13433;DHT22;6789;47.678;9.158;2023-07-16T10:18:33;24.70;99.90
13433;DHT22;6789;47.678;9.158;2023-07-16T10:23:37;24.80;99.90
13433;DHT22;6789;47.678;9.158;2023-07-16T10:28:30;24.80;99.90
13433;DHT22;6789;47.678;9.158;2023-07-16T10:33:22;25.00;99.90
13433;DHT22;6789;47.678;9.158;2023-07-16T10:38:13;25.00;99.90
13433;DHT22;6789;47.678;9.158;2023-07-16T10:43:08;24.90;99.90
13433;DHT22;6789;47.678;9.158;2023-07-16T10:48:00;24.80;99.90
13433;DHT22;6789;47.678;9.158;2023-07-16T10:52:56;24.80;99.90
13433;DHT22;6789;47.678;9.158;2023-07-16T10:57:48;24.60;99.90
13433;DHT22;6789;47.678;9.158;2023-07-16T11:02:42;24.60;99.90
13433;DHT22;6789;47.678;9.158;2023-07-16T11:07:35;24.30;99.90
13433;DHT22;6789;47.678;9.158;2023-07-16T11:12:27;24.20;99.90
13433;DHT22;6789;47.678;9.158;2023-07-16T11:17:20;24.40;99.90
13433;DHT22;6789;47.678;9.158;2023-07-16T11:22:15;24.40;99.90
13433;DHT22;6789;47.678;9.158;2023-07-16T11:27:15;24.50;99.90
13433;DHT22;6789;47.678;9.158;2023-07-16T11:32:12;25.00;99.90
13433;DHT22;6789;47.678;9.158;2023-07-16T11:37:11;25.20;99.90
13433;DHT22;6789;47.678;9.158;2023-07-16T11:42:04;25.60;99.90
13433;DHT22;6789;47.678;9.158;2023-07-16T11:46:58;25.70;99.90
13433;DHT22;6789;47.678;9.158;2023-07-16T11:51:50;25.90;99.90
13433;DHT22;6789;47.678;9.158;2023-07-16T11:56:42;26.00;99.90
13433;DHT22;6789;47.678;9.158;2023-07-16T12:01:34;26.50;99.90
13433;DHT22;6789;47.678;9.158;2023-07-16T12:06:26;26.40;99.90
13433;DHT22;6789;47.678;9.158;2023-07-16T12:11:18;26.30;99.90
13433;DHT22;6789;47.678;9.158;2023-07-16T12:16:09;26.10;99.90
13433;DHT22;6789;47.678;9.158;2023-07-16T12:21:02;26.20;99.90
13433;DHT22;6789;47.678;9.158;2023-07-16T12:25:54;25.90;99.90
13433;DHT22;6789;47.678;9.158;2023-07-16T12:30:46;26.10;99.90
13433;DHT22;6789;47.678;9.158;2023-07-16T12:35:38;26.10;99.90
13433;DHT22;6789;47.678;9.158;2023-07-16T12:40:30;26.10;99.90
13433;DHT22;6789;47.678;9.158;2023-07-16T12:45:22;26.10;99.90
13433;DHT22;6789;47.678;9.158;2023-07-16T12:50:15;26.50;99.90
13433;DHT22;6789;47.678;9.158;2023-07-16T12:55:07;26.50;99.90
13433;DHT22;6789;47.678;9.158;2023-07-16T13:00:00;26.30;99.90
13433;DHT22;6789;47.678;9.158;2023-07-16T13:04:56;26.10;99.90
13433;DHT22;6789;47.678;9.158;2023-07-16T13:09:48;26.10;99.90
13433;DHT22;6789;47.678;9.158;2023-07-16T13:14:51;26.10;99.90
13433;DHT22;6789;47.678;9.158;2023-07-16T13:19:43;25.90;99.90
13433;DHT22;6789;47.678;9.158;2023-07-16T13:24:38;26.10;99.90
13433;DHT22;6789;47.678;9.158;2023-07-16T13:29:30;26.10;99.90
13433;DHT22;6789;47.678;9.158;2023-07-16T13:34:22;26.20;99.90
13433;DHT22;6789;47.678;9.158;2023-07-16T13:39:14;26.50;99.90
13433;DHT22;6789;47.678;9.158;2023-07-16T13:44:06;26.60;99.90
13433;DHT22;6789;47.678;9.158;2023-07-16T13:48:58;26.30;99.90
13433;DHT22;6789;47.678;9.158;2023-07-16T13:53:51;26.30;99.90
13433;DHT22;6789;47.678;9.158;2023-07-16T13:58:43;26.60;99.90
13433;DHT22;6789;47.678;9.158;2023-07-16T14:03:35;26.60;99.90
13433;DHT22;6789;47.678;9.158;2023-07-16T14:08:27;26.80;99.90
13433;DHT22;6789;47.678;9.158;2023-07-16T14:13:19;26.80;99.90
13433;DHT22;6789;47.678;9.158;2023-07-16T14:18:11;26.50;99.90
13433;DHT22;6789;47.678;9.158;2023-07-16T14:23:03;26.30;99.90
13433;DHT22;6789;47.678;9.158;2023-07-16T14:27:55;26.50;99.90
13433;DHT22;6789;47.678;9.158;2023-07-16T14:32:46;26.10;99.90
13433;DHT22;6789;47.678;9.158;2023-07-16T14:37:39;25.90;99.90
13433;DHT22;6789;47.678;9.158;2023-07-16T14:42:30;25.70;99.90
13433;DHT22;6789;47.678;9.158;2023-07-16T14:47:22;25.90;99.90
13433;DHT22;6789;47.678;9.158;2023-07-16T14:52:14;25.60;99.90
13433;DHT22;6789;47.678;9.158;2023-07-16T14:57:06;25.90;99.90
13433;DHT22;6789;47.678;9.158;2023-07-16T15:01:58;26.00;99.90
13433;DHT22;6789;47.678;9.158;2023-07-16T15:06:49;25.90;99.90
13433;DHT22;6789;47.678;9.158;2023-07-16T15:11:42;26.10;99.90
13433;DHT22;6789;47.678;9.158;2023-07-16T15:16:34;26.30;99.90
13433;DHT22;6789;47.678;9.158;2023-07-16T15:21:25;26.30;99.90
13433;DHT22;6789;47.678;9.158;2023-07-16T15:26:17;26.50;99.90
13433;DHT22;6789;47.678;9.158;2023-07-16T15:31:10;26.50;99.90
13433;DHT22;6789;47.678;9.158;2023-07-16T15:36:04;26.30;99.90
13433;DHT22;6789;47.678;9.158;2023-07-16T15:40:56;26.50;99.90
13433;DHT22;6789;47.678;9.158;2023-07-16T15:45:49;26.70;99.90
13433;DHT22;6789;47.678;9.158;2023-07-16T15:50:40;26.60;99.90
13433;DHT22;6789;47.678;9.158;2023-07-16T15:55:34;26.60;99.90
13433;DHT22;6789;47.678;9.158;2023-07-16T16:00:26;26.60;99.90
13433;DHT22;6789;47.678;9.158;2023-07-16T16:05:18;26.70;99.90
13433;DHT22;6789;47.678;9.158;2023-07-16T16:10:13;26.60;99.90
13433;DHT22;6789;47.678;9.158;2023-07-16T16:15:07;26.70;99.90
13433;DHT22;6789;47.678;9.158;2023-07-16T16:19:59;26.80;99.90
13433;DHT22;6789;47.678;9.158;2023-07-16T16:24:51;26.50;99.90
13433;DHT22;6789;47.678;9.158;2023-07-16T16:29:43;26.60;99.90
13433;DHT22;6789;47.678;9.158;2023-07-16T16:34:36;26.50;99.90
13433;DHT22;6789;47.678;9.158;2023-07-16T16:39:29;26.30;99.90
13433;DHT22;6789;47.678;9.158;2023-07-16T16:44:21;26.30;99.90
13433;DHT22;6789;47.678;9.158;2023-07-16T16:49:13;26.30;99.90
13433;DHT22;6789;47.678;9.158;2023-07-16T16:54:05;26.30;99.90
13433;DHT22;6789;47.678;9.158;2023-07-16T16:58:57;26.40;99.90
13433;DHT22;6789;47.678;9.158;2023-07-16T17:03:49;26.70;99.90
13433;DHT22;6789;47.678;9.158;2023-07-16T17:08:41;26.70;99.90
13433;DHT22;6789;47.678;9.158;2023-07-16T17:13:41;26.50;99.90
13433;DHT22;6789;47.678;9.158;2023-07-16T17:18:32;26.50;99.90
13433;DHT22;6789;47.678;9.158;2023-07-16T17:23:24;26.20;99.90
13433;DHT22;6789;47.678;9.158;2023-07-16T17:28:17;26.00;99.90
13433;DHT22;6789;47.678;9.158;2023-07-16T17:33:09;25.70;99.90
13433;DHT22;6789;47.678;9.158;2023-07-16T17:38:01;25.30;99.90
13433;DHT22;6789;47.678;9.158;2023-07-16T17:42:53;25.20;99.90
13433;DHT22;6789;47.678;9.158;2023-07-16T17:47:46;25.40;99.90
13433;DHT22;6789;47.678;9.158;2023-07-16T17:52:39;25.50;99.90
13433;DHT22;6789;47.678;9.158;2023-07-16T17:57:31;25.80;99.90
13433;DHT22;6789;47.678;9.158;2023-07-16T18:02:24;25.90;99.90
13433;DHT22;6789;47.678;9.158;2023-07-16T18:07:16;25.80;99.90
13433;DHT22;6789;47.678;9.158;2023-07-16T18:12:08;25.30;99.90
13433;DHT22;6789;47.678;9.158;2023-07-16T18:17:00;24.80;99.90
13433;DHT22;6789;47.678;9.158;2023-07-16T18:21:52;24.40;99.90
13433;DHT22;6789;47.678;9.158;2023-07-16T18:26:56;23.90;99.90
13433;DHT22;6789;47.678;9.158;2023-07-16T18:31:48;23.60;99.90
13433;DHT22;6789;47.678;9.158;2023-07-16T18:36:40;23.50;99.90
13433;DHT22;6789;47.678;9.158;2023-07-16T18:41:32;23.80;99.90
13433;DHT22;6789;47.678;9.158;2023-07-16T18:46:25;23.90;99.90
13433;DHT22;6789;47.678;9.158;2023-07-16T18:51:18;23.80;99.90
13433;DHT22;6789;47.678;9.158;2023-07-16T18:56:12;23.70;99.90
13433;DHT22;6789;47.678;9.158;2023-07-16T19:01:05;23.80;99.90
13433;DHT22;6789;47.678;9.158;2023-07-16T19:06:01;23.90;99.90
13433;DHT22;6789;47.678;9.158;2023-07-16T19:10:53;24.00;99.90
13433;DHT22;6789;47.678;9.158;2023-07-16T19:15:46;23.70;99.90
13433;DHT22;6789;47.678;9.158;2023-07-16T19:20:39;23.80;99.90
13433;DHT22;6789;47.678;9.158;2023-07-16T19:25:30;23.60;99.90
13433;DHT22;6789;47.678;9.158;2023-07-16T19:30:22;23.40;99.90
13433;DHT22;6789;47.678;9.158;2023-07-16T19:35:14;23.20;99.90
13433;DHT22;6789;47.678;9.158;2023-07-16T19:40:06;23.00;99.90
13433;DHT22;6789;47.678;9.158;2023-07-16T19:45:02;22.70;99.90
13433;DHT22;6789;47.678;9.158;2023-07-16T19:49:55;22.20;99.90
13433;DHT22;6789;47.678;9.158;2023-07-16T19:55:04;21.90;99.90
13433;DHT22;6789;47.678;9.158;2023-07-16T19:59:56;21.80;99.90
13433;DHT22;6789;47.678;9.158;2023-07-16T20:04:48;21.80;99.90
13433;DHT22;6789;47.678;9.158;2023-07-16T20:09:40;21.70;99.90
13433;DHT22;6789;47.678;9.158;2023-07-16T20:14:34;21.70;99.90
13433;DHT22;6789;47.678;9.158;2023-07-16T20:19:26;21.40;99.90
13433;DHT22;6789;47.678;9.158;2023-07-16T20:24:18;21.40;99.90
13433;DHT22;6789;47.678;9.158;2023-07-16T20:29:09;21.50;99.90
13433;DHT22;6789;47.678;9.158;2023-07-16T20:34:01;21.50;99.90
13433;DHT22;6789;47.678;9.158;2023-07-16T20:38:54;21.50;99.90
13433;DHT22;6789;47.678;9.158;2023-07-16T20:43:46;21.60;99.90
13433;DHT22;6789;47.678;9.158;2023-07-16T20:48:39;21.50;99.90
13433;DHT22;6789;47.678;9.158;2023-07-16T20:53:33;21.40;99.90
13433;DHT22;6789;47.678;9.158;2023-07-16T20:58:25;21.40;99.90
13433;DHT22;6789;47.678;9.158;2023-07-16T21:03:17;21.20;99.90
13433;DHT22;6789;47.678;9.158;2023-07-16T21:08:09;21.30;99.90
13433;DHT22;6789;47.678;9.158;2023-07-16T21:13:01;21.30;99.90
13433;DHT22;6789;47.678;9.158;2023-07-16T21:17:57;21.10;99.90
13433;DHT22;6789;47.678;9.158;2023-07-16T21:22:50;21.10;99.90
13433;DHT22;6789;47.678;9.158;2023-07-16T21:27:48;21.00;99.90
13433;DHT22;6789;47.678;9.158;2023-07-16T21:32:46;21.10;99.90
13433;DHT22;6789;47.678;9.158;2023-07-16T21:37:39;21.20;99.90
13433;DHT22;6789;47.678;9.158;2023-07-16T21:42:31;21.10;99.90
13433;DHT22;6789;47.678;9.158;2023-07-16T21:47:22;21.20;99.90
13433;DHT22;6789;47.678;9.158;2023-07-16T21:52:14;21.40;99.90
13433;DHT22;6789;47.678;9.158;2023-07-16T21:57:06;21.40;99.90
13433;DHT22;6789;47.678;9.158;2023-07-16T22:01:58;21.30;99.90
13433;DHT22;6789;47.678;9.158;2023-07-16T22:06:50;21.10;99.90
13433;DHT22;6789;47.678;9.158;2023-07-16T22:11:42;20.90;99.90
13433;DHT22;6789;47.678;9.158;2023-07-16T22:16:35;20.90;99.90
13433;DHT22;6789;47.678;9.158;2023-07-16T22:21:27;20.80;99.90
13433;DHT22;6789;47.678;9.158;2023-07-16T22:26:19;20.80;99.90
13433;DHT22;6789;47.678;9.158;2023-07-16T22:31:12;21.00;99.90
13433;DHT22;6789;47.678;9.158;2023-07-16T22:36:04;21.00;99.90
13433;DHT22;6789;47.678;9.158;2023-07-16T22:40:56;21.00;99.90
13433;DHT22;6789;47.678;9.158;2023-07-16T22:45:48;20.90;99.90
13433;DHT22;6789;47.678;9.158;2023-07-16T22:50:46;21.20;99.90
13433;DHT22;6789;47.678;9.158;2023-07-16T22:55:38;21.10;99.90
13433;DHT22;6789;47.678;9.158;2023-07-16T23:00:31;21.10;99.90
13433;DHT22;6789;47.678;9.158;2023-07-16T23:05:24;21.20;99.90
13433;DHT22;6789;47.678;9.158;2023-07-16T23:10:17;21.10;99.90
13433;DHT22;6789;47.678;9.158;2023-07-16T23:15:11;21.10;99.90
13433;DHT22;6789;47.678;9.158;2023-07-16T23:20:04;21.10;99.90
13433;DHT22;6789;47.678;9.158;2023-07-16T23:24:57;21.00;99.90
13433;DHT22;6789;47.678;9.158;2023-07-16T23:29:49;20.90;99.90
13433;DHT22;6789;47.678;9.158;2023-07-16T23:34:41;20.70;99.90
13433;DHT22;6789;47.678;9.158;2023-07-16T23:39:33;20.70;99.90
13433;DHT22;6789;47.678;9.158;2023-07-16T23:44:24;21.00;99.90
13433;DHT22;6789;47.678;9.158;2023-07-16T23:49:16;21.00;99.90
13433;DHT22;6789;47.678;9.158;2023-07-16T23:54:08;21.20;99.90
13433;DHT22;6789;47.678;9.158;2023-07-16T23:59:13;21.30;99.90
